PIA702 EGCC-OPIS
Flight info
| Callsign | PIA702 |
|---|---|
| Flight time | N/A |
| Altitude | 33000 |
| Route | SONEX L975 DESIG L603 LAMSO/N0472F350 DCT GARLU P717 BKD L619 PODUS Z717 BODLA Q316 OSKUD N858 BOKSU DCT KAZLA DCT ZENIT/K0867F350 M874 ASKIL L736 NEBSU/K0867F370 L736 LODKU M56 GERLI M161 ODIVA Z407 LAPZE/K0874F390 T186 AMDAR/N0475F390 M875 TAPIS L509 LAJAK/N0418F270 G796 HANGU J165 NONIB J143 KALMI |
| Aircraft | B772/H-SDE3FGHIJ3J4J5M1RWXYZ/LB1D1 |
Departure
| Time | N/A |
|---|---|
| Airport | Manchester Airport (EGCC) |
Arrival
| Time | 2026-05-05 06:04 |
|---|---|
| Airport | Islamabad International Airport (OPIS) |
| Time | Latitude | Longitude | Altitude | Speed | Heading |
|---|---|---|---|---|---|
| 2026-05-05 02:27 | 53.17746 | 45.66129 | 35006 ft | 469 kts | 109° |
| 2026-05-05 02:27 | 53.15414 | 45.76277 | 34990 ft | 469 kts | 109° |
| 2026-05-05 02:28 | 53.13070 | 45.86427 | 34998 ft | 469 kts | 109° |
| 2026-05-05 02:28 | 53.10720 | 45.96554 | 35004 ft | 470 kts | 109° |
| 2026-05-05 02:29 | 53.08357 | 46.06696 | 35005 ft | 471 kts | 109° |
| 2026-05-05 02:29 | 53.05991 | 46.16795 | 34995 ft | 471 kts | 109° |
| 2026-05-05 02:30 | 53.03591 | 46.26995 | 34993 ft | 472 kts | 109° |
| 2026-05-05 02:30 | 53.01201 | 46.37105 | 34993 ft | 472 kts | 109° |
| 2026-05-05 02:31 | 52.98802 | 46.47205 | 35000 ft | 474 kts | 110° |
| 2026-05-05 02:31 | 52.96374 | 46.57378 | 35009 ft | 475 kts | 109° |
| 2026-05-05 02:32 | 52.93935 | 46.67548 | 35011 ft | 477 kts | 110° |
| 2026-05-05 02:32 | 52.91475 | 46.77758 | 35010 ft | 477 kts | 110° |
| 2026-05-05 02:33 | 52.89007 | 46.87957 | 35022 ft | 479 kts | 110° |
| 2026-05-05 02:33 | 52.86508 | 46.98233 | 35008 ft | 479 kts | 110° |
| 2026-05-05 02:34 | 52.84026 | 47.08390 | 35014 ft | 480 kts | 110° |
| 2026-05-05 02:34 | 52.81515 | 47.18619 | 35011 ft | 482 kts | 110° |
| 2026-05-05 02:35 | 52.78993 | 47.28849 | 35004 ft | 482 kts | 110° |
| 2026-05-05 02:35 | 52.76444 | 47.39137 | 34977 ft | 483 kts | 110° |
| 2026-05-05 02:36 | 52.73893 | 47.49383 | 34978 ft | 485 kts | 110° |
| 2026-05-05 02:36 | 52.71379 | 47.59676 | 34980 ft | 486 kts | 108° |
| 2026-05-05 02:37 | 52.69107 | 47.70119 | 34990 ft | 486 kts | 109° |
| 2026-05-05 02:37 | 52.66835 | 47.80564 | 34987 ft | 486 kts | 109° |
| 2026-05-05 02:38 | 52.64543 | 47.91047 | 34960 ft | 488 kts | 109° |
| 2026-05-05 02:38 | 52.62231 | 48.01570 | 34987 ft | 488 kts | 109° |
| 2026-05-05 02:39 | 52.59919 | 48.12033 | 34961 ft | 489 kts | 109° |
| 2026-05-05 02:39 | 52.57595 | 48.22472 | 34965 ft | 489 kts | 109° |
| 2026-05-05 02:40 | 52.55255 | 48.32929 | 34975 ft | 490 kts | 109° |
| 2026-05-05 02:40 | 52.52903 | 48.43391 | 34974 ft | 491 kts | 109° |
| 2026-05-05 02:41 | 52.50519 | 48.53942 | 34978 ft | 492 kts | 109° |
| 2026-05-05 02:41 | 52.48145 | 48.64395 | 34968 ft | 491 kts | 109° |
| 2026-05-05 02:42 | 52.45753 | 48.74877 | 34980 ft | 492 kts | 110° |
| 2026-05-05 02:42 | 52.43353 | 48.85342 | 34960 ft | 493 kts | 110° |
| 2026-05-05 02:43 | 52.40927 | 48.95867 | 34977 ft | 493 kts | 110° |
| 2026-05-05 02:43 | 52.38513 | 49.06289 | 34972 ft | 493 kts | 111° |
| 2026-05-05 02:44 | 52.36073 | 49.16763 | 34993 ft | 493 kts | 111° |
| 2026-05-05 02:44 | 52.33625 | 49.27189 | 34975 ft | 493 kts | 111° |
| 2026-05-05 02:45 | 52.31156 | 49.37651 | 34976 ft | 495 kts | 111° |
| 2026-05-05 02:45 | 52.28691 | 49.48052 | 34976 ft | 494 kts | 111° |
| 2026-05-05 02:46 | 52.26216 | 49.58460 | 34988 ft | 493 kts | 111° |
| 2026-05-05 02:46 | 52.23718 | 49.68918 | 34992 ft | 494 kts | 112° |
| 2026-05-05 02:47 | 52.21209 | 49.79369 | 34986 ft | 495 kts | 112° |
| 2026-05-05 02:47 | 52.18706 | 49.89743 | 34975 ft | 495 kts | 112° |
| 2026-05-05 02:48 | 52.16171 | 50.00204 | 34990 ft | 496 kts | 112° |
| 2026-05-05 02:48 | 52.13641 | 50.10592 | 34979 ft | 496 kts | 112° |
| 2026-05-05 02:49 | 52.11103 | 50.20967 | 34985 ft | 496 kts | 112° |
| 2026-05-05 02:49 | 52.08552 | 50.31343 | 34982 ft | 496 kts | 112° |
| 2026-05-05 02:50 | 52.05983 | 50.41743 | 34982 ft | 497 kts | 112° |
| 2026-05-05 02:50 | 52.03405 | 50.52130 | 34985 ft | 498 kts | 113° |
| 2026-05-05 02:51 | 52.00812 | 50.62526 | 34986 ft | 498 kts | 113° |
| 2026-05-05 02:51 | 51.98206 | 50.72933 | 34984 ft | 498 kts | 114° |
| 2026-05-05 02:52 | 51.95589 | 50.83330 | 34983 ft | 498 kts | 114° |
| 2026-05-05 02:52 | 51.92940 | 50.93657 | 34984 ft | 499 kts | 115° |
| 2026-05-05 02:53 | 51.90230 | 51.03980 | 34982 ft | 498 kts | 115° |
| 2026-05-05 02:53 | 51.87505 | 51.14324 | 34987 ft | 499 kts | 115° |
| 2026-05-05 02:54 | 51.84772 | 51.24652 | 34980 ft | 500 kts | 115° |
| 2026-05-05 02:54 | 51.82030 | 51.34976 | 34986 ft | 500 kts | 115° |
| 2026-05-05 02:55 | 51.79291 | 51.45244 | 34986 ft | 500 kts | 115° |
| 2026-05-05 02:55 | 51.76543 | 51.55502 | 34986 ft | 501 kts | 115° |
| 2026-05-05 02:56 | 51.73767 | 51.65817 | 34986 ft | 500 kts | 116° |
| 2026-05-05 02:56 | 51.70981 | 51.76126 | 34983 ft | 501 kts | 116° |
| 2026-05-05 02:57 | 51.67382 | 51.85699 | 34985 ft | 496 kts | 133° |
| 2026-05-05 02:57 | 51.62338 | 51.93053 | 34991 ft | 488 kts | 150° |
| 2026-05-05 02:58 | 51.56528 | 51.98511 | 34989 ft | 486 kts | 154° |
| 2026-05-05 02:58 | 51.50654 | 52.03770 | 34989 ft | 485 kts | 155° |
| 2026-05-05 02:59 | 51.44722 | 52.09022 | 34989 ft | 485 kts | 155° |
| 2026-05-05 02:59 | 51.38813 | 52.14212 | 34989 ft | 485 kts | 155° |
| 2026-05-05 03:00 | 51.32925 | 52.19355 | 34987 ft | 484 kts | 155° |
| 2026-05-05 03:00 | 51.27012 | 52.24499 | 34989 ft | 484 kts | 155° |
| 2026-05-05 03:01 | 51.21105 | 52.29618 | 34990 ft | 485 kts | 155° |
| 2026-05-05 03:01 | 51.15187 | 52.34729 | 34985 ft | 484 kts | 155° |
| 2026-05-05 03:02 | 51.09292 | 52.39805 | 34989 ft | 484 kts | 155° |
| 2026-05-05 03:02 | 51.03376 | 52.44883 | 34985 ft | 483 kts | 155° |
| 2026-05-05 03:03 | 50.97458 | 52.49947 | 34986 ft | 483 kts | 155° |
| 2026-05-05 03:03 | 50.91560 | 52.54980 | 34989 ft | 482 kts | 155° |
| 2026-05-05 03:04 | 50.85794 | 52.60400 | 34982 ft | 486 kts | 146° |
| 2026-05-05 03:04 | 50.80584 | 52.67366 | 34986 ft | 489 kts | 143° |
| 2026-05-05 03:05 | 50.75450 | 52.74352 | 34981 ft | 487 kts | 143° |
| 2026-05-05 03:05 | 50.70312 | 52.81308 | 34978 ft | 486 kts | 143° |
| 2026-05-05 03:06 | 50.65158 | 52.88260 | 34966 ft | 486 kts | 143° |
| 2026-05-05 03:06 | 50.60043 | 52.95134 | 34979 ft | 485 kts | 144° |
| 2026-05-05 03:07 | 50.54903 | 53.02019 | 34978 ft | 484 kts | 144° |
| 2026-05-05 03:07 | 50.49777 | 53.08863 | 34978 ft | 485 kts | 144° |
| 2026-05-05 03:08 | 50.44678 | 53.15653 | 34988 ft | 484 kts | 144° |
| 2026-05-05 03:08 | 50.39551 | 53.22459 | 34968 ft | 482 kts | 144° |
| 2026-05-05 03:09 | 50.34438 | 53.29225 | 34975 ft | 483 kts | 144° |
| 2026-05-05 03:09 | 50.29277 | 53.36035 | 34967 ft | 482 kts | 144° |
| 2026-05-05 03:10 | 50.24182 | 53.42738 | 34975 ft | 482 kts | 144° |
| 2026-05-05 03:10 | 50.19031 | 53.49497 | 34975 ft | 482 kts | 144° |
| 2026-05-05 03:11 | 50.13930 | 53.56168 | 34977 ft | 482 kts | 144° |
| 2026-05-05 03:11 | 50.08786 | 53.62878 | 34971 ft | 481 kts | 144° |
| 2026-05-05 03:12 | 50.03633 | 53.69580 | 34963 ft | 481 kts | 145° |
| 2026-05-05 03:12 | 49.98520 | 53.76210 | 34968 ft | 480 kts | 145° |
| 2026-05-05 03:13 | 49.93418 | 53.82807 | 34956 ft | 479 kts | 145° |
| 2026-05-05 03:13 | 49.88407 | 53.89670 | 34955 ft | 483 kts | 137° |
| 2026-05-05 03:14 | 49.83993 | 53.97488 | 34960 ft | 482 kts | 135° |
| 2026-05-05 03:14 | 49.79600 | 54.05329 | 34959 ft | 482 kts | 135° |
| 2026-05-05 03:15 | 49.75227 | 54.13094 | 34958 ft | 482 kts | 135° |
| 2026-05-05 03:15 | 49.70823 | 54.20882 | 34955 ft | 482 kts | 135° |
| 2026-05-05 03:16 | 49.66421 | 54.28639 | 34956 ft | 480 kts | 135° |
| 2026-05-05 03:16 | 49.62019 | 54.36370 | 34955 ft | 481 kts | 135° |
| 2026-05-05 03:17 | 49.57614 | 54.44083 | 34954 ft | 480 kts | 135° |
| 2026-05-05 03:17 | 49.53178 | 54.51825 | 34949 ft | 479 kts | 135° |
| 2026-05-05 03:18 | 49.48790 | 54.59460 | 34949 ft | 479 kts | 135° |
| 2026-05-05 03:18 | 49.44387 | 54.67099 | 34945 ft | 478 kts | 136° |
| 2026-05-05 03:19 | 49.37790 | 54.78503 | 34939 ft | 477 kts | 135° |
| 2026-05-05 03:19 | 49.33405 | 54.86055 | 34937 ft | 476 kts | 135° |
| 2026-05-05 03:20 | 49.28984 | 54.93646 | 34937 ft | 476 kts | 135° |
| 2026-05-05 03:20 | 49.24602 | 55.01150 | 34934 ft | 476 kts | 135° |
| 2026-05-05 03:21 | 49.20176 | 55.08706 | 34936 ft | 476 kts | 135° |
| 2026-05-05 03:21 | 49.15778 | 55.16195 | 34933 ft | 476 kts | 135° |
| 2026-05-05 03:22 | 49.11350 | 55.23714 | 34928 ft | 475 kts | 135° |
| 2026-05-05 03:22 | 49.06952 | 55.31160 | 34929 ft | 476 kts | 135° |
| 2026-05-05 03:23 | 49.02491 | 55.38691 | 34930 ft | 476 kts | 135° |
| 2026-05-05 03:23 | 48.98061 | 55.46150 | 34930 ft | 476 kts | 135° |
| 2026-05-05 03:24 | 48.93608 | 55.53624 | 34928 ft | 476 kts | 135° |
| 2026-05-05 03:24 | 48.89173 | 55.61049 | 34921 ft | 476 kts | 135° |
| 2026-05-05 03:25 | 48.84714 | 55.68492 | 34918 ft | 477 kts | 136° |
| 2026-05-05 03:25 | 48.80225 | 55.75956 | 34926 ft | 477 kts | 136° |
| 2026-05-05 03:26 | 48.75783 | 55.83320 | 34922 ft | 476 kts | 136° |
| 2026-05-05 03:26 | 48.71306 | 55.90720 | 34923 ft | 477 kts | 136° |
| 2026-05-05 03:27 | 48.66819 | 55.98116 | 34919 ft | 477 kts | 136° |
| 2026-05-05 03:27 | 48.62344 | 56.05470 | 34918 ft | 476 kts | 136° |
| 2026-05-05 03:28 | 48.57849 | 56.12836 | 34917 ft | 476 kts | 136° |
| 2026-05-05 03:28 | 48.53346 | 56.20194 | 34912 ft | 476 kts | 136° |
| 2026-05-05 03:29 | 48.48846 | 56.27525 | 34906 ft | 475 kts | 135° |
| 2026-05-05 03:29 | 48.44344 | 56.34838 | 34912 ft | 476 kts | 136° |
| 2026-05-05 03:30 | 48.39871 | 56.42083 | 34909 ft | 475 kts | 135° |
| 2026-05-05 03:30 | 48.35377 | 56.49343 | 34904 ft | 474 kts | 135° |
| 2026-05-05 03:31 | 48.30888 | 56.56583 | 34901 ft | 474 kts | 135° |
| 2026-05-05 03:31 | 48.26400 | 56.63804 | 34898 ft | 474 kts | 135° |
| 2026-05-05 03:32 | 48.21907 | 56.71013 | 34898 ft | 473 kts | 136° |
| 2026-05-05 03:32 | 48.17421 | 56.78191 | 34890 ft | 473 kts | 136° |
| 2026-05-05 03:33 | 48.12907 | 56.85394 | 34892 ft | 473 kts | 136° |
| 2026-05-05 03:33 | 48.08399 | 56.92568 | 34891 ft | 473 kts | 136° |
| 2026-05-05 03:34 | 48.03902 | 56.99704 | 34889 ft | 473 kts | 136° |
| 2026-05-05 03:34 | 47.99413 | 57.06807 | 34890 ft | 472 kts | 136° |
| 2026-05-05 03:35 | 47.94917 | 57.13904 | 34897 ft | 472 kts | 136° |
| 2026-05-05 03:35 | 47.90414 | 57.20992 | 34894 ft | 473 kts | 136° |
| 2026-05-05 03:36 | 47.85866 | 57.28130 | 34897 ft | 472 kts | 136° |
| 2026-05-05 03:36 | 47.81344 | 57.35210 | 34906 ft | 473 kts | 136° |
| 2026-05-05 03:37 | 47.76833 | 57.42253 | 34905 ft | 473 kts | 136° |
| 2026-05-05 03:37 | 47.72264 | 57.49366 | 34911 ft | 473 kts | 136° |
| 2026-05-05 03:38 | 47.67713 | 57.56434 | 34910 ft | 473 kts | 136° |
| 2026-05-05 03:38 | 47.63176 | 57.63459 | 34913 ft | 474 kts | 136° |
| 2026-05-05 03:39 | 47.58635 | 57.70473 | 34914 ft | 473 kts | 136° |
| 2026-05-05 03:39 | 47.54104 | 57.77452 | 34911 ft | 473 kts | 136° |
| 2026-05-05 03:40 | 47.49520 | 57.84494 | 34917 ft | 474 kts | 136° |
| 2026-05-05 03:40 | 47.44983 | 57.91445 | 34917 ft | 473 kts | 136° |
| 2026-05-05 03:41 | 47.40400 | 57.98448 | 34919 ft | 473 kts | 136° |
| 2026-05-05 03:41 | 47.35834 | 58.05405 | 34926 ft | 473 kts | 136° |
| 2026-05-05 03:42 | 47.31251 | 58.12371 | 34924 ft | 474 kts | 136° |
| 2026-05-05 03:42 | 47.26655 | 58.19336 | 34917 ft | 474 kts | 136° |
| 2026-05-05 03:43 | 47.22054 | 58.26287 | 34922 ft | 475 kts | 136° |
| 2026-05-05 03:43 | 47.17433 | 58.33251 | 34918 ft | 475 kts | 136° |
| 2026-05-05 03:44 | 47.12853 | 58.40134 | 34926 ft | 475 kts | 136° |
| 2026-05-05 03:44 | 47.08239 | 58.47051 | 34922 ft | 475 kts | 136° |
| 2026-05-05 03:45 | 47.03618 | 58.53960 | 34930 ft | 476 kts | 136° |
| 2026-05-05 03:45 | 46.98980 | 58.60875 | 34924 ft | 475 kts | 136° |
| 2026-05-05 03:46 | 46.94323 | 58.67802 | 34918 ft | 476 kts | 137° |
| 2026-05-05 03:46 | 46.89659 | 58.74719 | 34919 ft | 476 kts | 137° |
| 2026-05-05 03:47 | 46.85015 | 58.81589 | 34919 ft | 476 kts | 137° |
| 2026-05-05 03:47 | 46.80381 | 58.88427 | 34920 ft | 477 kts | 137° |
| 2026-05-05 03:48 | 46.75728 | 58.95276 | 34925 ft | 476 kts | 137° |
| 2026-05-05 03:48 | 46.71033 | 59.02167 | 34927 ft | 477 kts | 137° |
| 2026-05-05 03:49 | 46.66385 | 59.08972 | 34918 ft | 477 kts | 137° |
| 2026-05-05 03:49 | 46.61698 | 59.15815 | 34917 ft | 477 kts | 137° |
| 2026-05-05 03:50 | 46.57005 | 59.22651 | 34925 ft | 478 kts | 137° |
| 2026-05-05 03:50 | 46.52310 | 59.29472 | 34921 ft | 478 kts | 137° |
| 2026-05-05 03:51 | 46.47597 | 59.36300 | 34928 ft | 478 kts | 137° |
| 2026-05-05 03:51 | 46.42901 | 59.43087 | 34927 ft | 478 kts | 137° |
| 2026-05-05 03:52 | 46.38219 | 59.49836 | 34929 ft | 478 kts | 137° |
| 2026-05-05 03:52 | 46.33509 | 59.56608 | 34928 ft | 478 kts | 137° |
| 2026-05-05 03:53 | 46.28795 | 59.63368 | 34931 ft | 478 kts | 137° |
| 2026-05-05 03:53 | 46.24088 | 59.70102 | 34928 ft | 478 kts | 138° |
| 2026-05-05 03:54 | 46.19273 | 59.76729 | 34931 ft | 478 kts | 140° |
| 2026-05-05 03:54 | 46.14387 | 59.83160 | 34929 ft | 477 kts | 140° |
| 2026-05-05 03:55 | 46.09509 | 59.89582 | 34929 ft | 477 kts | 140° |
| 2026-05-05 03:55 | 46.04593 | 59.96049 | 34932 ft | 478 kts | 140° |
| 2026-05-05 03:56 | 45.99674 | 60.02511 | 34931 ft | 478 kts | 140° |
| 2026-05-05 03:56 | 45.94784 | 60.08920 | 34931 ft | 478 kts | 140° |
| 2026-05-05 03:57 | 45.89885 | 60.15327 | 34931 ft | 478 kts | 140° |
| 2026-05-05 03:57 | 45.84971 | 60.21740 | 34932 ft | 478 kts | 140° |
| 2026-05-05 03:58 | 45.80058 | 60.28135 | 34933 ft | 478 kts | 140° |
| 2026-05-05 03:58 | 45.75166 | 60.34487 | 34932 ft | 477 kts | 140° |
| 2026-05-05 03:59 | 45.70256 | 60.40847 | 34932 ft | 477 kts | 140° |
| 2026-05-05 03:59 | 45.65332 | 60.47209 | 34930 ft | 477 kts | 140° |
| 2026-05-05 04:00 | 45.60396 | 60.53572 | 34931 ft | 477 kts | 140° |
| 2026-05-05 04:00 | 45.55486 | 60.59885 | 34931 ft | 476 kts | 140° |
| 2026-05-05 04:01 | 45.50594 | 60.66161 | 34929 ft | 476 kts | 141° |
| 2026-05-05 04:01 | 45.45658 | 60.72476 | 34929 ft | 475 kts | 141° |
| 2026-05-05 04:02 | 45.40753 | 60.78736 | 34931 ft | 475 kts | 141° |
| 2026-05-05 04:02 | 45.35852 | 60.84974 | 34929 ft | 475 kts | 141° |
| 2026-05-05 04:03 | 45.30921 | 60.91233 | 34926 ft | 474 kts | 141° |
| 2026-05-05 04:03 | 45.26001 | 60.97464 | 34927 ft | 474 kts | 141° |
| 2026-05-05 04:04 | 45.21080 | 61.03680 | 34926 ft | 474 kts | 141° |
| 2026-05-05 04:04 | 45.16170 | 61.09869 | 34932 ft | 474 kts | 141° |
| 2026-05-05 04:05 | 45.11222 | 61.16090 | 34929 ft | 474 kts | 141° |
| 2026-05-05 04:05 | 45.06289 | 61.22278 | 34929 ft | 474 kts | 141° |
| 2026-05-05 04:06 | 45.01369 | 61.28433 | 34929 ft | 475 kts | 141° |
| 2026-05-05 04:06 | 44.96420 | 61.34610 | 34933 ft | 475 kts | 141° |
| 2026-05-05 04:07 | 44.91462 | 61.40785 | 34930 ft | 475 kts | 140° |
| 2026-05-05 04:07 | 44.86500 | 61.46951 | 34933 ft | 476 kts | 140° |
| 2026-05-05 04:08 | 44.81546 | 61.53097 | 34933 ft | 476 kts | 140° |
| 2026-05-05 04:08 | 44.76568 | 61.59258 | 34934 ft | 477 kts | 140° |
| 2026-05-05 04:09 | 44.71616 | 61.65371 | 34934 ft | 476 kts | 141° |
| 2026-05-05 04:09 | 44.66601 | 61.71549 | 34927 ft | 476 kts | 141° |
| 2026-05-05 04:10 | 44.61631 | 61.77656 | 34933 ft | 476 kts | 141° |
| 2026-05-05 04:10 | 44.56652 | 61.83759 | 34932 ft | 476 kts | 141° |
| 2026-05-05 04:11 | 44.51677 | 61.89844 | 34937 ft | 477 kts | 141° |
| 2026-05-05 04:11 | 44.46711 | 61.95902 | 34936 ft | 476 kts | 141° |
| 2026-05-05 04:12 | 44.41712 | 62.01986 | 34934 ft | 477 kts | 141° |
| 2026-05-05 04:12 | 44.36730 | 62.08036 | 34935 ft | 476 kts | 141° |
| 2026-05-05 04:13 | 44.31706 | 62.14124 | 34934 ft | 476 kts | 141° |
| 2026-05-05 04:13 | 44.26722 | 62.20146 | 34936 ft | 477 kts | 141° |
| 2026-05-05 04:14 | 44.21703 | 62.26198 | 34936 ft | 477 kts | 141° |
| 2026-05-05 04:14 | 44.16682 | 62.32238 | 34936 ft | 477 kts | 141° |
| 2026-05-05 04:15 | 44.11652 | 62.38261 | 34936 ft | 477 kts | 141° |
| 2026-05-05 04:15 | 44.06639 | 62.44250 | 34938 ft | 477 kts | 141° |
| 2026-05-05 04:16 | 44.01602 | 62.50255 | 34937 ft | 477 kts | 141° |
| 2026-05-05 04:16 | 43.96573 | 62.56237 | 34938 ft | 478 kts | 141° |
| 2026-05-05 04:17 | 43.91524 | 62.62228 | 34938 ft | 478 kts | 141° |
| 2026-05-05 04:17 | 43.86436 | 62.68250 | 34935 ft | 478 kts | 142° |
| 2026-05-05 04:18 | 43.81355 | 62.74252 | 34936 ft | 478 kts | 141° |
| 2026-05-05 04:18 | 43.76291 | 62.80220 | 34936 ft | 478 kts | 142° |
| 2026-05-05 04:19 | 43.71252 | 62.86144 | 34937 ft | 478 kts | 141° |
| 2026-05-05 04:19 | 43.66179 | 62.92092 | 34937 ft | 478 kts | 141° |
| 2026-05-05 04:20 | 43.61069 | 62.98071 | 34938 ft | 478 kts | 141° |
| 2026-05-05 04:20 | 43.56018 | 63.03982 | 34940 ft | 479 kts | 141° |
| 2026-05-05 04:21 | 43.50943 | 63.09909 | 34942 ft | 479 kts | 141° |
| 2026-05-05 04:21 | 43.45882 | 63.15805 | 34943 ft | 478 kts | 141° |
| 2026-05-05 04:22 | 43.40805 | 63.21706 | 34947 ft | 479 kts | 141° |
| 2026-05-05 04:22 | 43.35720 | 63.27604 | 34951 ft | 479 kts | 141° |
| 2026-05-05 04:23 | 43.30610 | 63.33516 | 34947 ft | 479 kts | 141° |
| 2026-05-05 04:23 | 43.25522 | 63.39383 | 34951 ft | 479 kts | 141° |
| 2026-05-05 04:24 | 43.20425 | 63.45249 | 34953 ft | 479 kts | 141° |
| 2026-05-05 04:25 | 43.12752 | 63.54053 | 34955 ft | 479 kts | 141° |
| 2026-05-05 04:25 | 43.07657 | 63.59884 | 34960 ft | 479 kts | 141° |
| 2026-05-05 04:26 | 43.02524 | 63.65744 | 34964 ft | 479 kts | 142° |
| 2026-05-05 04:26 | 42.97436 | 63.71540 | 34960 ft | 479 kts | 142° |
| 2026-05-05 04:27 | 42.92291 | 63.77380 | 34962 ft | 479 kts | 142° |
| 2026-05-05 04:27 | 42.87149 | 63.83200 | 34965 ft | 478 kts | 142° |
| 2026-05-05 04:28 | 42.82037 | 63.88973 | 34969 ft | 479 kts | 142° |
| 2026-05-05 04:28 | 42.76909 | 63.94752 | 34968 ft | 479 kts | 142° |
| 2026-05-05 04:29 | 42.71780 | 64.00520 | 34964 ft | 479 kts | 142° |
| 2026-05-05 04:29 | 42.66645 | 64.06281 | 34970 ft | 479 kts | 142° |
| 2026-05-05 04:30 | 42.61499 | 64.12030 | 34962 ft | 479 kts | 143° |
| 2026-05-05 04:30 | 42.55748 | 64.16542 | 34972 ft | 476 kts | 158° |
| 2026-05-05 04:31 | 42.49667 | 64.20020 | 34959 ft | 475 kts | 159° |
| 2026-05-05 04:31 | 42.43559 | 64.23484 | 34968 ft | 476 kts | 159° |
| 2026-05-05 04:32 | 42.37460 | 64.26968 | 34965 ft | 476 kts | 159° |
| 2026-05-05 04:32 | 42.31312 | 64.30471 | 34973 ft | 477 kts | 159° |
| 2026-05-05 04:33 | 42.25231 | 64.33926 | 34972 ft | 477 kts | 159° |
| 2026-05-05 04:33 | 42.19112 | 64.37395 | 34968 ft | 476 kts | 159° |
| 2026-05-05 04:34 | 42.12989 | 64.40859 | 34961 ft | 477 kts | 159° |
| 2026-05-05 04:34 | 42.06887 | 64.44302 | 34960 ft | 477 kts | 159° |
| 2026-05-05 04:35 | 42.00774 | 64.47745 | 34952 ft | 477 kts | 159° |
| 2026-05-05 04:35 | 41.94640 | 64.51193 | 34957 ft | 479 kts | 159° |
| 2026-05-05 04:36 | 41.88479 | 64.54647 | 34948 ft | 478 kts | 159° |
| 2026-05-05 04:36 | 41.82351 | 64.58076 | 34953 ft | 478 kts | 159° |
| 2026-05-05 04:37 | 41.76201 | 64.61510 | 34954 ft | 479 kts | 159° |
| 2026-05-05 04:37 | 41.70002 | 64.64893 | 34949 ft | 478 kts | 159° |
| 2026-05-05 04:38 | 41.63811 | 64.68238 | 34956 ft | 479 kts | 160° |
| 2026-05-05 04:38 | 41.57624 | 64.71577 | 34961 ft | 480 kts | 160° |
| 2026-05-05 04:39 | 41.51432 | 64.74915 | 34963 ft | 480 kts | 160° |
| 2026-05-05 04:39 | 41.45246 | 64.78243 | 34960 ft | 481 kts | 160° |
| 2026-05-05 04:40 | 41.39037 | 64.81577 | 34964 ft | 481 kts | 160° |
| 2026-05-05 04:40 | 41.32853 | 64.84892 | 34967 ft | 481 kts | 160° |
| 2026-05-05 04:41 | 41.26624 | 64.88223 | 35021 ft | 482 kts | 160° |
| 2026-05-05 04:41 | 41.20444 | 64.91521 | 34959 ft | 480 kts | 160° |
| 2026-05-05 04:42 | 41.14256 | 64.94817 | 34950 ft | 480 kts | 160° |
| 2026-05-05 04:42 | 41.08028 | 64.98127 | 34949 ft | 482 kts | 160° |
| 2026-05-05 04:43 | 41.01834 | 65.01413 | 34944 ft | 481 kts | 160° |
| 2026-05-05 04:43 | 40.95616 | 65.04704 | 34944 ft | 482 kts | 160° |
| 2026-05-05 04:44 | 40.89407 | 65.07985 | 34950 ft | 482 kts | 160° |
| 2026-05-05 04:44 | 40.83134 | 65.11293 | 34946 ft | 482 kts | 160° |
| 2026-05-05 04:45 | 40.76920 | 65.14565 | 34860 ft | 483 kts | 160° |
| 2026-05-05 04:45 | 40.70642 | 65.17862 | 35029 ft | 485 kts | 160° |
| 2026-05-05 04:46 | 40.64397 | 65.21137 | 34953 ft | 484 kts | 160° |
| 2026-05-05 04:46 | 40.58145 | 65.24408 | 34970 ft | 484 kts | 160° |
| 2026-05-05 04:47 | 40.51852 | 65.27695 | 35113 ft | 484 kts | 160° |
| 2026-05-05 04:47 | 40.48727 | 65.29325 | 34987 ft | 484 kts | 160° |
| 2026-05-05 04:47 | 40.45600 | 65.30956 | 34978 ft | 482 kts | 160° |
| 2026-05-05 04:47 | 40.42506 | 65.32566 | 34858 ft | 483 kts | 160° |
| 2026-05-05 04:48 | 40.39349 | 65.34207 | 34956 ft | 486 kts | 160° |
| 2026-05-05 04:48 | 40.33045 | 65.37481 | 34997 ft | 483 kts | 160° |
| 2026-05-05 04:49 | 40.26821 | 65.40707 | 34973 ft | 484 kts | 160° |
| 2026-05-05 04:49 | 40.20569 | 65.43941 | 34980 ft | 484 kts | 160° |
| 2026-05-05 04:50 | 40.14265 | 65.47195 | 34981 ft | 484 kts | 160° |
| 2026-05-05 04:50 | 40.08017 | 65.50414 | 34992 ft | 484 kts | 160° |
| 2026-05-05 04:51 | 40.01739 | 65.53642 | 34999 ft | 485 kts | 160° |
| 2026-05-05 04:51 | 39.95472 | 65.56860 | 34999 ft | 485 kts | 160° |
| 2026-05-05 04:52 | 39.89166 | 65.60092 | 34998 ft | 487 kts | 160° |
| 2026-05-05 04:52 | 39.82776 | 65.63359 | 35319 ft | 496 kts | 160° |
| 2026-05-05 04:52 | 39.79561 | 65.65001 | 35787 ft | 494 kts | 160° |
| 2026-05-05 04:53 | 39.76373 | 65.66628 | 36176 ft | 492 kts | 161° |
| 2026-05-05 04:53 | 39.73183 | 65.68251 | 36422 ft | 494 kts | 161° |
| 2026-05-05 04:53 | 39.69986 | 65.69872 | 36664 ft | 495 kts | 161° |
| 2026-05-05 04:53 | 39.66740 | 65.71516 | 36866 ft | 497 kts | 161° |
| 2026-05-05 04:54 | 39.63534 | 65.73137 | 36981 ft | 499 kts | 161° |
| 2026-05-05 04:54 | 39.57072 | 65.76402 | 36982 ft | 497 kts | 161° |
| 2026-05-05 04:55 | 39.50660 | 65.79636 | 36981 ft | 497 kts | 161° |
| 2026-05-05 04:55 | 39.44178 | 65.82897 | 36971 ft | 497 kts | 161° |
| 2026-05-05 04:56 | 39.37748 | 65.86127 | 36976 ft | 497 kts | 161° |
| 2026-05-05 04:56 | 39.31310 | 65.89354 | 36974 ft | 498 kts | 161° |
| 2026-05-05 04:57 | 39.24800 | 65.92614 | 36986 ft | 499 kts | 162° |
| 2026-05-05 04:57 | 39.18335 | 65.95845 | 36988 ft | 499 kts | 161° |
| 2026-05-05 04:58 | 39.11898 | 65.99057 | 36988 ft | 498 kts | 161° |
| 2026-05-05 04:58 | 39.05390 | 66.02297 | 36993 ft | 499 kts | 162° |
| 2026-05-05 04:59 | 38.98940 | 66.05502 | 36996 ft | 500 kts | 162° |
| 2026-05-05 04:59 | 38.92427 | 66.08732 | 37007 ft | 500 kts | 161° |
| 2026-05-05 05:00 | 38.85905 | 66.11961 | 37005 ft | 500 kts | 161° |
| 2026-05-05 05:00 | 38.79395 | 66.15176 | 37003 ft | 501 kts | 161° |
| 2026-05-05 05:01 | 38.72937 | 66.18360 | 37001 ft | 501 kts | 161° |
| 2026-05-05 05:01 | 38.66414 | 66.21569 | 37018 ft | 503 kts | 162° |
| 2026-05-05 05:02 | 38.60100 | 66.25395 | 37015 ft | 506 kts | 149° |
| 2026-05-05 05:02 | 38.54303 | 66.30510 | 37042 ft | 508 kts | 147° |
| 2026-05-05 05:03 | 38.48546 | 66.35656 | 37045 ft | 507 kts | 147° |
| 2026-05-05 05:03 | 38.42775 | 66.40797 | 37069 ft | 509 kts | 147° |
| 2026-05-05 05:04 | 38.36947 | 66.45974 | 37075 ft | 507 kts | 147° |
| 2026-05-05 05:04 | 38.31180 | 66.51086 | 37095 ft | 508 kts | 147° |
| 2026-05-05 05:05 | 38.25383 | 66.56212 | 37115 ft | 509 kts | 147° |
| 2026-05-05 05:05 | 38.19574 | 66.61339 | 37126 ft | 509 kts | 147° |
| 2026-05-05 05:06 | 38.13742 | 66.66475 | 37142 ft | 508 kts | 147° |
| 2026-05-05 05:06 | 38.07927 | 66.71585 | 37149 ft | 510 kts | 147° |
| 2026-05-05 05:07 | 38.02094 | 66.76703 | 37167 ft | 509 kts | 147° |
| 2026-05-05 05:07 | 37.96270 | 66.81805 | 37160 ft | 510 kts | 147° |
| 2026-05-05 05:08 | 37.90435 | 66.86908 | 37124 ft | 509 kts | 147° |
| 2026-05-05 05:08 | 37.84562 | 66.92034 | 37096 ft | 510 kts | 147° |
| 2026-05-05 05:09 | 37.78736 | 66.97109 | 37078 ft | 509 kts | 147° |
| 2026-05-05 05:09 | 37.72890 | 67.02190 | 37061 ft | 510 kts | 147° |
| 2026-05-05 05:10 | 37.66885 | 67.06887 | 37056 ft | 508 kts | 154° |
| 2026-05-05 05:10 | 37.60612 | 67.10996 | 37026 ft | 509 kts | 155° |
| 2026-05-05 05:11 | 37.54307 | 67.15108 | 37030 ft | 510 kts | 155° |
| 2026-05-05 05:11 | 37.48012 | 67.19208 | 37023 ft | 509 kts | 155° |
| 2026-05-05 05:12 | 37.41707 | 67.23307 | 37007 ft | 512 kts | 155° |
| 2026-05-05 05:12 | 37.35400 | 67.27400 | 36997 ft | 511 kts | 155° |
| 2026-05-05 05:13 | 37.29015 | 67.31357 | 37010 ft | 508 kts | 161° |
| 2026-05-05 05:13 | 37.22273 | 67.33956 | 36988 ft | 508 kts | 163° |
| 2026-05-05 05:14 | 37.15924 | 67.37789 | 36994 ft | 513 kts | 153° |
| 2026-05-05 05:14 | 37.09640 | 67.42130 | 36986 ft | 513 kts | 153° |
| 2026-05-05 05:15 | 37.03397 | 67.46448 | 36991 ft | 513 kts | 153° |
| 2026-05-05 05:15 | 36.97161 | 67.50760 | 36989 ft | 512 kts | 153° |
| 2026-05-05 05:16 | 36.90941 | 67.55054 | 37002 ft | 513 kts | 153° |
| 2026-05-05 05:16 | 36.84669 | 67.59379 | 36998 ft | 512 kts | 153° |
| 2026-05-05 05:17 | 36.78449 | 67.63660 | 37024 ft | 513 kts | 153° |
| 2026-05-05 05:17 | 36.72171 | 67.67973 | 37033 ft | 512 kts | 154° |
| 2026-05-05 05:18 | 36.65948 | 67.72259 | 37039 ft | 513 kts | 154° |
| 2026-05-05 05:18 | 36.59712 | 67.76555 | 37085 ft | 514 kts | 154° |
| 2026-05-05 05:19 | 36.53451 | 67.80859 | 37124 ft | 512 kts | 154° |
| 2026-05-05 05:19 | 36.47219 | 67.85135 | 37130 ft | 513 kts | 154° |
| 2026-05-05 05:20 | 36.40986 | 67.89403 | 37130 ft | 513 kts | 154° |
| 2026-05-05 05:20 | 36.34714 | 67.93689 | 37161 ft | 514 kts | 154° |
| 2026-05-05 05:21 | 36.28477 | 67.97945 | 37163 ft | 513 kts | 154° |
| 2026-05-05 05:21 | 36.22237 | 68.02194 | 37183 ft | 512 kts | 154° |
| 2026-05-05 05:22 | 36.15969 | 68.06454 | 37202 ft | 513 kts | 154° |
| 2026-05-05 05:22 | 36.09705 | 68.10704 | 37225 ft | 514 kts | 154° |
| 2026-05-05 05:23 | 36.03411 | 68.14966 | 37237 ft | 514 kts | 154° |
| 2026-05-05 05:23 | 35.97165 | 68.19188 | 37252 ft | 515 kts | 154° |
| 2026-05-05 05:24 | 35.90855 | 68.23445 | 37295 ft | 514 kts | 154° |
| 2026-05-05 05:24 | 35.84538 | 68.27699 | 37315 ft | 516 kts | 154° |
| 2026-05-05 05:25 | 35.78273 | 68.31911 | 37323 ft | 514 kts | 154° |
| 2026-05-05 05:25 | 35.71973 | 68.36139 | 37318 ft | 516 kts | 154° |
| 2026-05-05 05:26 | 35.65680 | 68.40354 | 37293 ft | 515 kts | 154° |
| 2026-05-05 05:26 | 35.59346 | 68.44589 | 37286 ft | 516 kts | 154° |
| 2026-05-05 05:27 | 35.53070 | 68.48753 | 37326 ft | 517 kts | 154° |
| 2026-05-05 05:27 | 35.43574 | 68.55033 | 37355 ft | 516 kts | 154° |
| 2026-05-05 05:28 | 35.37259 | 68.59202 | 37373 ft | 515 kts | 154° |
| 2026-05-05 05:28 | 35.30956 | 68.63355 | 37391 ft | 516 kts | 154° |
| 2026-05-05 05:29 | 35.24578 | 68.67551 | 37421 ft | 515 kts | 155° |
| 2026-05-05 05:29 | 35.18238 | 68.71713 | 37400 ft | 516 kts | 155° |
| 2026-05-05 05:30 | 35.11908 | 68.75863 | 37377 ft | 516 kts | 155° |
| 2026-05-05 05:30 | 35.05594 | 68.79994 | 37374 ft | 516 kts | 155° |
| 2026-05-05 05:31 | 34.99265 | 68.84128 | 37371 ft | 516 kts | 155° |
| 2026-05-05 05:31 | 34.92910 | 68.88271 | 37357 ft | 515 kts | 155° |
| 2026-05-05 05:32 | 34.86641 | 68.92351 | 37344 ft | 516 kts | 155° |
| 2026-05-05 05:32 | 34.80291 | 68.96478 | 37348 ft | 517 kts | 155° |
| 2026-05-05 05:33 | 34.73951 | 69.00589 | 37335 ft | 516 kts | 155° |
| 2026-05-05 05:33 | 34.67583 | 69.04713 | 37319 ft | 516 kts | 155° |
| 2026-05-05 05:34 | 34.61215 | 69.08828 | 37280 ft | 516 kts | 155° |
| 2026-05-05 05:34 | 34.55038 | 69.13357 | 37289 ft | 519 kts | 143° |
| 2026-05-05 05:35 | 34.50005 | 69.19599 | 37275 ft | 523 kts | 126° |
| 2026-05-05 05:35 | 34.46351 | 69.27262 | 37303 ft | 523 kts | 116° |
| 2026-05-05 05:36 | 34.43078 | 69.35091 | 37308 ft | 522 kts | 116° |
| 2026-05-05 05:36 | 34.39780 | 69.42916 | 37336 ft | 522 kts | 116° |
| 2026-05-05 05:37 | 34.36470 | 69.50721 | 37358 ft | 522 kts | 116° |
| 2026-05-05 05:37 | 34.33133 | 69.58552 | 37358 ft | 523 kts | 116° |
| 2026-05-05 05:38 | 34.29797 | 69.66355 | 37352 ft | 522 kts | 117° |
| 2026-05-05 05:38 | 34.26413 | 69.74244 | 37349 ft | 521 kts | 117° |
| 2026-05-05 05:39 | 34.23060 | 69.82044 | 37335 ft | 523 kts | 117° |
| 2026-05-05 05:39 | 34.19702 | 69.89832 | 37352 ft | 523 kts | 117° |
| 2026-05-05 05:40 | 34.16348 | 69.97581 | 37366 ft | 523 kts | 117° |
| 2026-05-05 05:40 | 34.12838 | 70.05607 | 37375 ft | 523 kts | 117° |
| 2026-05-05 05:41 | 34.09438 | 70.13364 | 37381 ft | 522 kts | 117° |
| 2026-05-05 05:41 | 34.06014 | 70.21159 | 37383 ft | 523 kts | 117° |
| 2026-05-05 05:42 | 34.02586 | 70.28948 | 37372 ft | 523 kts | 117° |
| 2026-05-05 05:42 | 33.99208 | 70.36604 | 37382 ft | 524 kts | 117° |
| 2026-05-05 05:43 | 33.95855 | 70.44186 | 37330 ft | 523 kts | 117° |
| 2026-05-05 05:43 | 33.92771 | 70.52135 | 37260 ft | 518 kts | 106° |
| 2026-05-05 05:44 | 33.91722 | 70.56233 | 36946 ft | 511 kts | 104° |
| 2026-05-05 05:44 | 33.90723 | 70.60323 | 36217 ft | 511 kts | 104° |
| 2026-05-05 05:44 | 33.89715 | 70.64455 | 35255 ft | 516 kts | 104° |
| 2026-05-05 05:44 | 33.88686 | 70.68658 | 34249 ft | 520 kts | 105° |
| 2026-05-05 05:45 | 33.87663 | 70.72819 | 33340 ft | 523 kts | 105° |
| 2026-05-05 05:45 | 33.86626 | 70.77028 | 32662 ft | 521 kts | 105° |
| 2026-05-05 05:45 | 33.85588 | 70.81227 | 32081 ft | 516 kts | 105° |
| 2026-05-05 05:45 | 33.84572 | 70.85327 | 31452 ft | 513 kts | 106° |
| 2026-05-05 05:46 | 33.83551 | 70.89441 | 30781 ft | 510 kts | 106° |
| 2026-05-05 05:46 | 33.82547 | 70.93478 | 30080 ft | 509 kts | 106° |
| 2026-05-05 05:46 | 33.81524 | 70.97586 | 29525 ft | 503 kts | 106° |
| 2026-05-05 05:46 | 33.80527 | 71.01584 | 29032 ft | 496 kts | 106° |
| 2026-05-05 05:47 | 33.79538 | 71.05541 | 28445 ft | 491 kts | 106° |
| 2026-05-05 05:47 | 33.78557 | 71.09458 | 27791 ft | 488 kts | 106° |
| 2026-05-05 05:47 | 33.77567 | 71.13410 | 27154 ft | 484 kts | 106° |
| 2026-05-05 05:47 | 33.76588 | 71.17308 | 26559 ft | 480 kts | 106° |
| 2026-05-05 05:48 | 33.75634 | 71.21104 | 25956 ft | 476 kts | 106° |
| 2026-05-05 05:48 | 33.74675 | 71.24915 | 25348 ft | 473 kts | 106° |
| 2026-05-05 05:48 | 33.73720 | 71.28700 | 24750 ft | 469 kts | 106° |
| 2026-05-05 05:48 | 33.72780 | 71.32421 | 24146 ft | 465 kts | 105° |
| 2026-05-05 05:49 | 33.71849 | 71.36103 | 23563 ft | 461 kts | 105° |
| 2026-05-05 05:49 | 33.70921 | 71.39771 | 22957 ft | 458 kts | 105° |
| 2026-05-05 05:49 | 33.69988 | 71.43448 | 22359 ft | 454 kts | 105° |
| 2026-05-05 05:49 | 33.69077 | 71.47034 | 21787 ft | 451 kts | 105° |
| 2026-05-05 05:50 | 33.68166 | 71.50620 | 21230 ft | 447 kts | 105° |
| 2026-05-05 05:50 | 33.67262 | 71.54168 | 20664 ft | 443 kts | 105° |
| 2026-05-05 05:50 | 33.66352 | 71.57735 | 20122 ft | 439 kts | 105° |
| 2026-05-05 05:50 | 33.65465 | 71.61212 | 19570 ft | 435 kts | 105° |
| 2026-05-05 05:51 | 33.64578 | 71.64681 | 19021 ft | 432 kts | 105° |
| 2026-05-05 05:51 | 33.63715 | 71.68052 | 18493 ft | 428 kts | 106° |
| 2026-05-05 05:51 | 33.62840 | 71.71468 | 17943 ft | 425 kts | 106° |
| 2026-05-05 05:51 | 33.61977 | 71.74831 | 17412 ft | 421 kts | 106° |
| 2026-05-05 05:52 | 33.61113 | 71.78194 | 16864 ft | 417 kts | 106° |
| 2026-05-05 05:52 | 33.60270 | 71.81471 | 16376 ft | 413 kts | 106° |
| 2026-05-05 05:52 | 33.59414 | 71.84795 | 15848 ft | 409 kts | 106° |
| 2026-05-05 05:52 | 33.58581 | 71.88029 | 15329 ft | 405 kts | 106° |
| 2026-05-05 05:53 | 33.57740 | 71.91286 | 14780 ft | 402 kts | 106° |
| 2026-05-05 05:53 | 33.56919 | 71.94462 | 14261 ft | 399 kts | 107° |
| 2026-05-05 05:53 | 33.56107 | 71.97601 | 13790 ft | 394 kts | 107° |
| 2026-05-05 05:53 | 33.55293 | 72.00742 | 13277 ft | 391 kts | 107° |
| 2026-05-05 05:54 | 33.54683 | 72.03878 | 12736 ft | 387 kts | 98° |
| 2026-05-05 05:54 | 33.54343 | 72.07062 | 12229 ft | 384 kts | 96° |
| 2026-05-05 05:54 | 33.54020 | 72.10268 | 11722 ft | 380 kts | 97° |
| 2026-05-05 05:54 | 33.53702 | 72.13408 | 11226 ft | 376 kts | 97° |
| 2026-05-05 05:55 | 33.53392 | 72.16454 | 10744 ft | 364 kts | 97° |
| 2026-05-05 05:55 | 33.53093 | 72.19389 | 10282 ft | 349 kts | 97° |
| 2026-05-05 05:55 | 33.52805 | 72.22212 | 9875 ft | 334 kts | 97° |
| 2026-05-05 05:55 | 33.52526 | 72.24922 | 9474 ft | 321 kts | 97° |
| 2026-05-05 05:56 | 33.52255 | 72.27552 | 9070 ft | 310 kts | 97° |
| 2026-05-05 05:56 | 33.51991 | 72.30096 | 8672 ft | 300 kts | 97° |
| 2026-05-05 05:56 | 33.51737 | 72.32533 | 8300 ft | 291 kts | 98° |
| 2026-05-05 05:56 | 33.51488 | 72.34910 | 7942 ft | 282 kts | 98° |
| 2026-05-05 05:57 | 33.51247 | 72.37214 | 7647 ft | 276 kts | 98° |
| 2026-05-05 05:57 | 33.51005 | 72.39517 | 7309 ft | 277 kts | 98° |
| 2026-05-05 05:57 | 33.50763 | 72.41814 | 6962 ft | 278 kts | 98° |
| 2026-05-05 05:57 | 33.50521 | 72.44112 | 6649 ft | 278 kts | 98° |
| 2026-05-05 05:58 | 33.50281 | 72.46389 | 6389 ft | 275 kts | 98° |
| 2026-05-05 05:58 | 33.50045 | 72.48628 | 6314 ft | 264 kts | 98° |
| 2026-05-05 05:58 | 33.49820 | 72.50755 | 6238 ft | 255 kts | 98° |
| 2026-05-05 05:58 | 33.49599 | 72.52835 | 6079 ft | 249 kts | 97° |
| 2026-05-05 05:59 | 33.49478 | 72.54904 | 5893 ft | 245 kts | 83° |
| 2026-05-05 05:59 | 33.50061 | 72.56753 | 5704 ft | 239 kts | 53° |
| 2026-05-05 05:59 | 33.51339 | 72.58038 | 5506 ft | 238 kts | 27° |
| 2026-05-05 05:59 | 33.52851 | 72.58792 | 5323 ft | 234 kts | 19° |
| 2026-05-05 06:00 | 33.54385 | 72.59386 | 5103 ft | 223 kts | 17° |
| 2026-05-05 06:00 | 33.55817 | 72.59915 | 4952 ft | 209 kts | 20° |
| 2026-05-05 06:00 | 33.56972 | 72.60846 | 4848 ft | 196 kts | 53° |
| 2026-05-05 06:00 | 33.57609 | 72.62260 | 4714 ft | 193 kts | 78° |
| 2026-05-05 06:01 | 33.57669 | 72.63865 | 4511 ft | 192 kts | 94° |
| 2026-05-05 06:01 | 33.57488 | 72.65469 | 4261 ft | 190 kts | 100° |
| 2026-05-05 06:01 | 33.57223 | 72.67008 | 4019 ft | 193 kts | 100° |
| 2026-05-05 06:01 | 33.56977 | 72.68576 | 3760 ft | 189 kts | 99° |
| 2026-05-05 06:02 | 33.56748 | 72.70097 | 3505 ft | 179 kts | 99° |
| 2026-05-05 06:02 | 33.56531 | 72.71513 | 3271 ft | 170 kts | 99° |
| 2026-05-05 06:02 | 33.56315 | 72.72906 | 3039 ft | 163 kts | 99° |
| 2026-05-05 06:02 | 33.56113 | 72.74211 | 2824 ft | 153 kts | 99° |
| 2026-05-05 06:03 | 33.55924 | 72.75429 | 2616 ft | 147 kts | 99° |
| 2026-05-05 06:03 | 33.55739 | 72.76615 | 2414 ft | 145 kts | 99° |
| 2026-05-05 06:03 | 33.55548 | 72.77817 | 2206 ft | 145 kts | 99° |
| 2026-05-05 06:03 | 33.55366 | 72.79006 | 1996 ft | 145 kts | 100° |
| 2026-05-05 06:04 | 33.55183 | 72.80190 | 1822 ft | 145 kts | 100° |
| 2026-05-05 06:04 | 33.54998 | 72.81360 | 1751 ft | 130 kts | 100° |
| 2026-05-05 06:04 | 33.54858 | 72.82262 | 1793 ft | 93 kts | 100° |
| 2026-05-05 06:04 | 33.54778 | 72.82798 | 1782 ft | 35 kts | 93° |
| 2026-05-05 06:05 | 33.54793 | 72.83064 | 1772 ft | 25 kts | 72° |
| 2026-05-05 06:05 | 33.54852 | 72.83249 | 1762 ft | 21 kts | 69° |
| 2026-05-05 06:05 | 33.54872 | 72.83387 | 1751 ft | 10 kts | 91° |
| 2026-05-05 06:05 | 33.54916 | 72.83457 | 1750 ft | 14 kts | 15° |
| 2026-05-05 06:06 | 33.55008 | 72.83478 | 1757 ft | 12 kts | 10° |
| 2026-05-05 06:06 | 33.55092 | 72.83498 | 1762 ft | 13 kts | 11° |
| 2026-05-05 06:06 | 33.55181 | 72.83518 | 1772 ft | 10 kts | 11° |
| 2026-05-05 06:06 | 33.55229 | 72.83528 | 1780 ft | 1 kts | 10° |
| 2026-05-05 06:07 | 33.55227 | 72.83527 | 1780 ft | 0 kts | 10° |
| 2026-05-05 06:07 | 33.55227 | 72.83528 | 1780 ft | 0 kts | 10° |
| 2026-05-05 06:07 | 33.55270 | 72.83537 | 1785 ft | 12 kts | 10° |
| 2026-05-05 06:07 | 33.55327 | 72.83508 | 1788 ft | 9 kts | 293° |
| 2026-05-05 06:08 | 33.55341 | 72.83424 | 1788 ft | 11 kts | 281° |
| 2026-05-05 06:08 | 33.55359 | 72.83312 | 1784 ft | 11 kts | 281° |
| 2026-05-05 06:08 | 33.55382 | 72.83267 | 1783 ft | 6 kts | 325° |
| 2026-05-05 06:08 | 33.55419 | 72.83255 | 1785 ft | 4 kts | 354° |
| 2026-05-05 06:09 | 33.55447 | 72.83251 | 1787 ft | 1 kts | 354° |
| 2026-05-05 06:09 | 33.55450 | 72.83251 | 1788 ft | 0 kts | 354° |